createdAt,value
2022-07-26T00:01:23.985Z,14.90
2022-07-26T00:06:30.945Z,14.90
2022-07-26T00:11:34.334Z,14.70
2022-07-26T00:16:38.134Z,14.50
2022-07-26T00:21:41.293Z,14.40
2022-07-26T00:26:44.059Z,14.50
2022-07-26T00:31:46.914Z,14.40
2022-07-26T00:36:49.796Z,14.50
2022-07-26T00:41:52.494Z,14.50
2022-07-26T00:46:55.263Z,14.40
2022-07-26T00:51:58.395Z,14.50
2022-07-26T00:57:01.655Z,14.40
2022-07-26T01:02:07.019Z,14.40
2022-07-26T01:07:14.752Z,14.20
2022-07-26T01:12:18.609Z,14.20
2022-07-26T01:17:21.356Z,14.30
2022-07-26T01:22:24.109Z,14.10
2022-07-26T01:27:31.993Z,14.30
2022-07-26T01:32:36.736Z,14.20
2022-07-26T01:37:39.572Z,14.30
2022-07-26T01:42:42.416Z,14.40
2022-07-26T01:47:50.232Z,14.30
2022-07-26T01:52:53.160Z,14.30
2022-07-26T01:57:56.091Z,14.30
2022-07-26T02:02:59.653Z,14.40
2022-07-26T02:08:02.519Z,14.40
2022-07-26T02:13:06.105Z,14.40
2022-07-26T02:18:10.555Z,14.40
2022-07-26T02:23:13.464Z,14.40
2022-07-26T02:28:17.025Z,14.30
2022-07-26T02:33:20.606Z,14.30
2022-07-26T02:38:24.590Z,14.30
2022-07-26T02:43:28.066Z,14.40
2022-07-26T02:48:32.083Z,14.40
2022-07-26T02:53:34.855Z,14.40
2022-07-26T02:58:38.230Z,14.50
2022-07-26T03:03:41.129Z,14.40
2022-07-26T03:08:43.987Z,14.50
2022-07-26T03:13:46.787Z,14.40
2022-07-26T03:18:49.485Z,14.60
2022-07-26T03:23:52.308Z,14.50
2022-07-26T03:28:56.145Z,14.50
2022-07-26T03:34:03.140Z,14.60
2022-07-26T03:39:06.166Z,14.80
2022-07-26T03:44:09.314Z,14.80
2022-07-26T03:49:16.602Z,14.90
2022-07-26T03:54:19.888Z,15.00
2022-07-26T03:59:24.416Z,15.00
2022-07-26T04:04:27.202Z,15.20
2022-07-26T04:09:30.006Z,15.40
2022-07-26T04:14:32.676Z,15.50
2022-07-26T04:19:37.146Z,15.60
2022-07-26T04:24:42.857Z,15.70
2022-07-26T04:29:45.618Z,15.90
2022-07-26T04:34:48.386Z,16.10
2022-07-26T04:39:54.910Z,16.50
2022-07-26T04:44:57.820Z,16.90
2022-07-26T04:50:00.623Z,17.40
2022-07-26T04:55:03.572Z,17.90
2022-07-26T05:00:21.299Z,18.50
2022-07-26T05:05:26.839Z,18.80
2022-07-26T05:10:34.106Z,18.90
2022-07-26T05:15:37.201Z,18.90
2022-07-26T05:20:40.387Z,19.10
2022-07-26T05:25:43.067Z,19.30
2022-07-26T05:30:45.992Z,19.40
2022-07-26T05:35:48.818Z,19.60
2022-07-26T05:40:51.686Z,19.90
2022-07-26T05:45:54.732Z,20.50
2022-07-26T05:51:00.958Z,21.40
2022-07-26T05:56:04.408Z,22.00
2022-07-26T06:01:07.834Z,21.90
2022-07-26T06:06:12.104Z,21.90
2022-07-26T06:11:14.935Z,21.50
2022-07-26T06:16:17.960Z,21.30
2022-07-26T06:21:20.666Z,21.10
2022-07-26T06:26:24.177Z,21.00
2022-07-26T06:31:27.056Z,20.90
2022-07-26T06:36:30.938Z,21.60
2022-07-26T06:41:34.105Z,22.40
2022-07-26T06:46:37.063Z,22.90
2022-07-26T06:51:40.107Z,23.40
2022-07-26T06:56:42.913Z,24.10
2022-07-26T07:01:58.120Z,24.50
2022-07-26T07:07:06.061Z,24.90
2022-07-26T07:12:10.621Z,24.90
2022-07-26T07:17:17.246Z,25.20
2022-07-26T07:22:23.022Z,25.40
2022-07-26T07:27:27.347Z,25.90
2022-07-26T07:32:30.449Z,25.90
2022-07-26T07:37:52.864Z,26.30
2022-07-26T07:42:56.195Z,26.80
2022-07-26T07:47:59.024Z,27.00
2022-07-26T07:53:02.283Z,27.00
2022-07-26T07:58:05.201Z,27.20
2022-07-26T08:03:09.093Z,27.40
2022-07-26T08:08:11.887Z,26.80
2022-07-26T08:13:17.025Z,26.20
2022-07-26T08:18:24.724Z,25.90
2022-07-26T08:23:27.734Z,25.50
2022-07-26T08:28:46.742Z,25.00
2022-07-26T08:33:50.429Z,25.00
2022-07-26T08:38:53.282Z,24.50
2022-07-26T08:44:04.438Z,24.20
2022-07-26T08:49:09.273Z,23.70
2022-07-26T08:54:14.897Z,23.60
2022-07-26T08:59:21.559Z,23.30
2022-07-26T09:04:32.682Z,23.00
2022-07-26T09:10:00.723Z,23.00
2022-07-26T09:15:07.165Z,22.60
2022-07-26T09:20:15.738Z,22.50
2022-07-26T09:25:23.099Z,22.40
2022-07-26T09:30:28.284Z,22.50
2022-07-26T09:35:50.430Z,22.30
2022-07-26T09:40:55.736Z,22.10
2022-07-26T09:46:07.354Z,21.90
2022-07-26T09:51:10.696Z,21.90
2022-07-26T09:56:14.452Z,21.90
2022-07-26T10:01:17.278Z,21.80
2022-07-26T10:06:21.015Z,21.80
2022-07-26T10:11:26.276Z,22.00
2022-07-26T10:16:32.494Z,22.00
2022-07-26T10:21:35.567Z,22.00
2022-07-26T10:26:43.087Z,21.90
2022-07-26T10:32:01.237Z,22.00
2022-07-26T10:37:06.666Z,22.10
2022-07-26T10:42:11.343Z,22.00
2022-07-26T10:47:18.427Z,21.90
2022-07-26T10:52:30.024Z,21.60
2022-07-26T10:57:40.774Z,21.50
2022-07-26T11:02:44.392Z,21.50
2022-07-26T11:07:53.905Z,21.40
2022-07-26T11:13:21.292Z,21.50
2022-07-26T11:18:28.592Z,21.80
2022-07-26T11:23:35.427Z,21.60
2022-07-26T11:28:51.180Z,21.40
2022-07-26T11:33:54.655Z,21.30
2022-07-26T11:38:57.584Z,21.20
2022-07-26T11:44:04.853Z,21.20
2022-07-26T11:49:25.059Z,21.30
2022-07-26T11:54:54.888Z,21.40
2022-07-26T12:00:00.033Z,21.50
2022-07-26T12:05:20.610Z,21.50
2022-07-26T12:10:24.405Z,21.20
2022-07-26T12:15:27.437Z,21.30
2022-07-26T12:20:30.246Z,21.30
2022-07-26T12:25:33.711Z,21.20
2022-07-26T12:30:36.750Z,21.10
2022-07-26T12:35:39.875Z,21.00
2022-07-26T12:40:43.477Z,20.60
2022-07-26T12:45:46.482Z,20.50
2022-07-26T12:50:49.342Z,20.50
2022-07-26T12:55:52.047Z,20.50
2022-07-26T13:00:54.938Z,20.70
2022-07-26T13:05:58.732Z,20.60
2022-07-26T13:11:01.624Z,20.40
2022-07-26T13:16:09.601Z,20.20
2022-07-26T13:21:14.645Z,20.00
2022-07-26T13:26:17.476Z,19.70
2022-07-26T13:31:20.663Z,19.50
2022-07-26T13:36:23.630Z,19.40
2022-07-26T13:41:26.975Z,19.30
2022-07-26T13:46:33.619Z,19.20
2022-07-26T13:51:56.889Z,19.10
2022-07-26T13:57:01.476Z,19.10
2022-07-26T14:02:05.420Z,19.20
2022-07-26T14:07:08.396Z,19.20
2022-07-26T14:12:15.929Z,19.30
2022-07-26T14:17:18.862Z,19.40
2022-07-26T14:22:21.817Z,19.40
2022-07-26T14:27:24.977Z,19.30
2022-07-26T14:32:27.951Z,19.40
2022-07-26T14:37:43.809Z,19.40
2022-07-26T14:42:48.420Z,19.20
2022-07-26T14:47:51.495Z,19.20
2022-07-26T14:52:55.621Z,19.20
2022-07-26T14:57:59.606Z,19.30
2022-07-26T15:03:02.607Z,19.30
2022-07-26T15:08:06.367Z,19.30
2022-07-26T15:13:09.537Z,19.20
2022-07-26T15:18:12.367Z,19.20
2022-07-26T15:23:15.611Z,19.20
2022-07-26T15:28:18.726Z,19.20
2022-07-26T15:33:21.540Z,19.20
2022-07-26T15:38:24.317Z,19.10
2022-07-26T15:43:48.163Z,19.00
2022-07-26T15:48:50.350Z,19.00
2022-07-26T15:53:53.320Z,19.00
2022-07-26T15:58:56.522Z,19.00
2022-07-26T16:03:59.437Z,18.90
2022-07-26T16:09:16.674Z,18.90
2022-07-26T16:14:20.777Z,18.90
2022-07-26T16:19:23.616Z,18.90
2022-07-26T16:24:26.462Z,18.80
2022-07-26T16:29:29.290Z,18.80
2022-07-26T16:34:35.267Z,18.80
2022-07-26T16:39:38.096Z,18.80
2022-07-26T16:44:40.937Z,18.70
2022-07-26T16:49:43.879Z,18.80
2022-07-26T16:54:46.733Z,18.80
2022-07-26T16:59:49.934Z,18.90
2022-07-26T17:04:54.205Z,18.80
2022-07-26T17:09:57.155Z,18.70
2022-07-26T17:15:00.865Z,18.80
2022-07-26T17:20:05.604Z,18.80
2022-07-26T17:25:08.971Z,18.90
2022-07-26T17:30:12.849Z,18.80
2022-07-26T17:35:15.886Z,18.70
2022-07-26T17:40:19.037Z,18.60
2022-07-26T17:45:21.932Z,18.60
2022-07-26T17:50:40.087Z,18.50
2022-07-26T17:55:42.804Z,18.50
2022-07-26T18:00:46.338Z,18.50
2022-07-26T18:05:49.898Z,18.50
2022-07-26T18:10:58.948Z,18.30
2022-07-26T18:16:05.918Z,18.30
2022-07-26T18:21:09.171Z,18.30
2022-07-26T18:26:12.023Z,18.30
2022-07-26T18:31:15.045Z,18.20
2022-07-26T18:36:17.976Z,18.10
2022-07-26T18:41:20.955Z,18.10
2022-07-26T18:46:24.745Z,17.90
2022-07-26T18:51:27.526Z,17.80
2022-07-26T18:56:30.385Z,17.70
2022-07-26T19:01:33.647Z,17.60
2022-07-26T19:06:38.465Z,17.50
2022-07-26T19:11:41.554Z,17.30
2022-07-26T19:16:44.433Z,17.30
2022-07-26T19:21:49.536Z,17.20
2022-07-26T19:26:52.314Z,17.20
2022-07-26T19:31:55.084Z,17.20
2022-07-26T19:36:58.223Z,17.20
2022-07-26T19:42:01.172Z,17.20
2022-07-26T19:47:04.023Z,17.30
2022-07-26T19:52:11.364Z,17.20
2022-07-26T19:57:14.804Z,17.20
2022-07-26T20:02:17.808Z,17.00
2022-07-26T20:07:20.677Z,17.00
2022-07-26T20:12:23.717Z,16.80
2022-07-26T20:17:26.929Z,16.60
2022-07-26T20:22:30.113Z,16.50
2022-07-26T20:27:33.036Z,16.50
2022-07-26T20:32:36.085Z,16.40
2022-07-26T20:37:39.045Z,16.30
2022-07-26T20:42:42.067Z,16.00
2022-07-26T20:47:47.859Z,16.00
2022-07-26T20:52:50.693Z,15.80
2022-07-26T20:57:53.896Z,15.60
2022-07-26T21:02:59.699Z,15.40
2022-07-26T21:08:02.605Z,15.40
2022-07-26T21:13:05.718Z,15.30
2022-07-26T21:18:09.088Z,15.20
2022-07-26T21:23:17.842Z,15.00
2022-07-26T21:28:21.657Z,14.90
2022-07-26T21:33:27.338Z,14.80
2022-07-26T21:38:32.191Z,14.70
2022-07-26T21:43:34.934Z,14.60
2022-07-26T21:48:38.946Z,14.70
2022-07-26T21:53:41.971Z,14.60
2022-07-26T21:58:44.738Z,14.50
2022-07-26T22:03:49.667Z,14.40
2022-07-26T22:08:52.572Z,14.40
2022-07-26T22:13:55.667Z,14.40
2022-07-26T22:18:58.437Z,14.20
2022-07-26T22:24:05.930Z,14.20
2022-07-26T22:29:11.730Z,14.20
2022-07-26T22:34:14.669Z,14.10
2022-07-26T22:39:17.428Z,14.00
2022-07-26T22:44:20.047Z,13.90
2022-07-26T22:49:22.780Z,14.00
2022-07-26T22:54:25.540Z,13.90
2022-07-26T22:59:28.270Z,13.80
2022-07-26T23:04:31.046Z,13.90
2022-07-26T23:09:33.957Z,13.80
2022-07-26T23:14:37.552Z,13.80
2022-07-26T23:19:40.707Z,13.80
2022-07-26T23:24:43.783Z,13.80
2022-07-26T23:29:46.539Z,13.70
2022-07-26T23:34:51.357Z,13.70
2022-07-26T23:39:54.062Z,13.60
2022-07-26T23:44:56.827Z,13.70
2022-07-26T23:49:59.520Z,13.60
2022-07-26T23:55:02.380Z,13.60
